Time;durP1;ratioP1;P1;durP2;ratioP2;P2;SDS_P1;SDS_P2;PMS_P1;PMS_P2;Temp;Humidity;BMP_temperature;BMP_pressure;BME280_temperature;BME280_humidity;BME280_pressure;Samples;Min_cycle;Max_cycle;Signal;HPM_P1;HPM_P2
2022/12/09 00:02:15;;;;;;;35.38;17.55;;;4.80;75.00;;;;;;2344738;57;21085;-49
2022/12/09 00:04:42;;;;;;;31.15;14.73;;;4.70;74.80;;;;;;2344674;57;21054;-46
2022/12/09 00:07:09;;;;;;;31.12;14.80;;;4.70;74.90;;;;;;2344168;57;21046;-47
2022/12/09 00:09:36;;;;;;;29.37;14.35;;;4.70;74.90;;;;;;2344488;57;21122;-52
2022/12/09 00:12:04;;;;;;;38.42;16.62;;;4.70;75.10;;;;;;2344191;57;21030;-50
2022/12/09 00:14:31;;;;;;;34.17;15.95;;;4.70;75.20;;;;;;2343933;57;21130;-46
2022/12/09 00:16:58;;;;;;;37.83;16.42;;;4.70;75.20;;;;;;2344259;57;21045;-50
2022/12/09 00:19:25;;;;;;;37.50;16.65;;;4.70;75.20;;;;;;2344176;57;21526;-51
2022/12/09 00:21:53;;;;;;;38.78;16.42;;;4.70;75.20;;;;;;2344149;57;21046;-50
2022/12/09 00:24:20;;;;;;;38.60;16.98;;;4.70;75.40;;;;;;2344307;57;21097;-51
2022/12/09 00:26:47;;;;;;;30.58;14.93;;;4.70;75.40;;;;;;2344361;57;21125;-47
2022/12/09 00:29:14;;;;;;;36.95;16.17;;;4.70;75.30;;;;;;2344136;57;21030;-49
2022/12/09 00:31:41;;;;;;;32.70;14.57;;;4.70;75.10;;;;;;2344150;57;21609;-50
2022/12/09 00:34:11;;;;;;;30.62;14.27;;;4.70;74.90;;;;;;2344405;57;21058;-50
2022/12/09 00:36:38;;;;;;;27.37;13.70;;;4.70;74.90;;;;;;2344239;57;21094;-50
2022/12/09 00:39:06;;;;;;;31.40;14.90;;;4.60;74.80;;;;;;2344531;57;21082;-47
2022/12/09 00:41:33;;;;;;;38.90;16.20;;;4.60;74.80;;;;;;2343919;57;21045;-53
2022/12/09 00:44:00;;;;;;;38.63;16.65;;;4.60;74.70;;;;;;2344452;57;21086;-47
2022/12/09 00:46:27;;;;;;;34.72;17.05;;;4.60;74.50;;;;;;2344246;57;21070;-52
2022/12/09 00:48:54;;;;;;;30.48;15.45;;;4.60;74.60;;;;;;2344854;57;21034;-47
2022/12/09 00:51:23;;;;;;;40.83;17.48;;;4.60;74.70;;;;;;2345052;57;21538;-52
2022/12/09 00:53:54;;;;;;;49.28;18.17;;;4.60;74.70;;;;;;2345194;57;21153;-47
2022/12/09 00:56:22;;;;;;;44.40;17.80;;;4.60;74.70;;;;;;2345128;57;21042;-47
2022/12/09 00:58:49;;;;;;;79.53;21.52;;;4.60;74.80;;;;;;2344318;57;21522;-46
2022/12/09 01:01:16;;;;;;;40.20;17.48;;;4.60;74.70;;;;;;2344516;57;21125;-48
2022/12/09 01:03:43;;;;;;;52.70;20.35;;;4.50;74.90;;;;;;2344284;57;21121;-53
2022/12/09 01:06:14;;;;;;;57.15;18.75;;;4.50;75.10;;;;;;2344258;57;21038;-48
2022/12/09 01:08:41;;;;;;;61.37;18.62;;;4.50;75.40;;;;;;2344038;57;21022;-49
2022/12/09 01:11:10;;;;;;;64.30;17.27;;;4.50;75.20;;;;;;2344292;57;21062;-52
2022/12/09 01:13:37;;;;;;;64.07;15.75;;;4.50;75.00;;;;;;2345550;57;21504;-48
2022/12/09 01:16:12;;;;;;;64.67;15.07;;;4.50;74.80;;;;;;2345501;57;21018;-47
2022/12/09 01:18:39;;;;;;;51.50;11.82;;;4.40;74.60;;;;;;2345444;57;21065;-52
2022/12/09 01:21:06;;;;;;;24.87;10.05;;;4.40;74.60;;;;;;2345703;57;21466;-46
2022/12/09 01:23:33;;;;;;;35.15;11.05;;;4.40;74.30;;;;;;2345724;57;21094;-50
2022/12/09 01:26:03;;;;;;;37.42;10.45;;;4.30;74.30;;;;;;2344964;57;21074;-48
2022/12/09 01:28:30;;;;;;;48.90;12.00;;;4.30;74.20;;;;;;2344597;57;21125;-55
2022/12/09 01:31:03;;;;;;;28.15;11.07;;;4.30;74.00;;;;;;2344236;57;21644;-49
2022/12/09 01:33:31;;;;;;;30.25;11.12;;;4.20;74.00;;;;;;2344245;57;21538;-48
2022/12/09 01:35:58;;;;;;;36.85;11.07;;;4.20;74.10;;;;;;2344269;57;21193;-51
2022/12/09 01:38:25;;;;;;;35.10;11.88;;;4.20;74.20;;;;;;2344291;57;21018;-46
2022/12/09 01:40:52;;;;;;;44.53;13.02;;;4.20;74.30;;;;;;2344548;57;21046;-50
2022/12/09 01:43:20;;;;;;;29.77;11.88;;;4.10;74.30;;;;;;2345210;57;21034;-47
2022/12/09 01:45:48;;;;;;;38.15;13.15;;;4.10;74.10;;;;;;2345050;57;21105;-50
2022/12/09 01:48:18;;;;;;;32.45;12.02;;;4.10;74.30;;;;;;2344661;57;21554;-50
2022/12/09 01:50:51;;;;;;;29.65;12.57;;;4.10;74.10;;;;;;2344209;57;21558;-50
2022/12/09 01:53:19;;;;;;;;;;;4.10;74.30;;;;;;2348117;57;21041;-50
2022/12/09 01:55:46;;;;;;;39.05;13.52;;;4.10;74.50;;;;;;2344433;57;20319;-45
2022/12/09 01:58:15;;;;;;;22.33;11.32;;;4.10;74.10;;;;;;2344242;57;21680;-47
2022/12/09 02:00:43;;;;;;;30.98;12.40;;;4.10;74.50;;;;;;2344535;57;21575;-49
2022/12/09 02:03:10;;;;;;;28.75;13.48;;;4.10;74.70;;;;;;2345595;57;21636;-50
2022/12/09 02:05:38;;;;;;;33.08;14.57;;;4.00;74.60;;;;;;2345589;57;21110;-49
2022/12/09 02:08:09;;;;;;;42.58;13.95;;;4.10;74.80;;;;;;2345503;57;21090;-53
2022/12/09 02:10:46;;;;;;;39.42;13.07;;;4.10;74.70;;;;;;2345635;57;21033;-52
2022/12/09 02:13:23;;;;;;;30.60;12.30;;;4.10;74.50;;;;;;2345351;57;21102;-48
2022/12/09 02:15:55;;;;;;;25.65;13.70;;;4.00;74.50;;;;;;2345468;57;21585;-52
2022/12/09 02:18:26;;;;;;;39.30;15.93;;;4.00;74.50;;;;;;2344717;57;21415;-48
2022/12/09 02:20:58;;;;;;;32.97;13.73;;;4.00;74.50;;;;;;2344355;57;21570;-51
2022/12/09 02:23:32;;;;;;;49.13;15.18;;;4.00;74.70;;;;;;2344247;57;21188;-53
2022/12/09 02:26:12;;;;;;;30.02;14.20;;;4.00;74.90;;;;;;2344496;57;21054;-54
2022/12/09 02:29:09;;;;;;;47.90;15.02;;;4.00;75.20;;;;;;2344323;57;21435;-54
2022/12/09 02:31:54;;;;;;;47.65;15.55;;;4.00;75.30;;;;;;2344740;57;21054;-46
2022/12/09 02:34:22;;;;;;;34.78;15.15;;;4.00;75.20;;;;;;2344706;57;21449;-48
2022/12/09 02:36:58;;;;;;;44.97;15.55;;;4.00;75.30;;;;;;2343880;57;21546;-53
2022/12/09 02:39:39;;;;;;;37.45;15.95;;;4.00;75.40;;;;;;2344474;57;21786;-49
2022/12/09 02:42:08;;;;;;;35.17;16.40;;;4.00;75.60;;;;;;2344419;57;21624;-48
2022/12/09 02:44:38;;;;;;;44.75;18.17;;;4.00;75.60;;;;;;2344371;57;21070;-51
2022/12/09 02:47:07;;;;;;;37.53;17.48;;;4.00;75.80;;;;;;2344270;57;21042;-51
2022/12/09 02:49:35;;;;;;;42.83;18.15;;;4.00;75.80;;;;;;2344124;57;21054;-53
2022/12/09 02:52:03;;;;;;;36.65;16.30;;;4.00;75.80;;;;;;2344052;57;22048;-48
2022/12/09 02:54:32;;;;;;;43.75;16.87;;;4.00;75.80;;;;;;2344056;57;21545;-49
2022/12/09 02:57:07;;;;;;;42.62;17.10;;;4.00;75.80;;;;;;2345665;57;21519;-51
2022/12/09 02:59:34;;;;;;;41.20;17.02;;;4.00;75.70;;;;;;2345345;57;21014;-50
2022/12/09 03:02:11;;;;;;;34.53;16.83;;;4.10;75.80;;;;;;2345732;57;21499;-46
2022/12/09 03:04:41;;;;;;;37.13;15.95;;;4.10;75.90;;;;;;2345539;57;21029;-47
2022/12/09 03:07:18;;;;;;;35.60;17.60;;;4.10;75.70;;;;;;2345575;57;21022;-47
2022/12/09 03:09:51;;;;;;;34.45;13.60;;;4.10;75.70;;;;;;2344839;57;21042;-47
2022/12/09 03:12:21;;;;;;;35.85;16.70;;;4.10;75.90;;;;;;2343191;57;21184;-49
2022/12/09 03:14:52;;;;;;;46.28;20.42;;;4.10;76.00;;;;;;2343704;57;21617;-51
2022/12/09 03:17:23;;;;;;;41.28;17.10;;;4.20;76.10;;;;;;2344450;57;21046;-45
2022/12/09 03:19:54;;;;;;;40.03;16.70;;;4.20;76.00;;;;;;2344134;57;21534;-48
2022/12/09 03:22:25;;;;;;;40.33;17.75;;;4.10;76.10;;;;;;2344349;57;21614;-45
2022/12/09 03:24:56;;;;;;;43.33;18.95;;;4.10;76.20;;;;;;2344124;57;21736;-52
2022/12/09 03:27:27;;;;;;;45.70;18.10;;;4.20;76.20;;;;;;2344963;57;22016;-46
2022/12/09 03:29:57;;;;;;;50.12;18.50;;;4.10;76.30;;;;;;2345013;57;21542;-48
2022/12/09 03:32:27;;;;;;;48.55;19.33;;;4.10;76.20;;;;;;2344608;57;21542;-51
2022/12/09 03:35:00;;;;;;;40.70;19.25;;;4.10;77.10;;;;;;2344147;57;21041;-50
2022/12/09 03:37:28;;;;;;;38.65;16.73;;;4.10;76.50;;;;;;2344246;57;21490;-53
2022/12/09 03:39:58;;;;;;;44.40;19.20;;;4.20;76.70;;;;;;2344205;57;21526;-47
2022/12/09 03:42:32;;;;;;;46.90;19.05;;;4.20;76.60;;;;;;2344086;57;21161;-46
2022/12/09 03:45:03;;;;;;;47.45;19.17;;;4.20;76.50;;;;;;2344112;57;21555;-49
2022/12/09 03:47:30;;;;;;;49.10;18.67;;;4.20;76.40;;;;;;2344061;57;21510;-47
2022/12/09 03:49:58;;;;;;;41.40;17.70;;;4.20;76.30;;;;;;2344127;57;21050;-47
2022/12/09 03:52:30;;;;;;;41.05;18.33;;;4.20;76.30;;;;;;2344109;57;21601;-50
2022/12/09 03:55:00;;;;;;;39.07;17.63;;;4.20;76.20;;;;;;2345791;57;21042;-49
2022/12/09 03:57:28;;;;;;;43.80;18.77;;;4.30;76.10;;;;;;2345632;57;21514;-45
2022/12/09 04:00:00;;;;;;;42.60;18.73;;;4.30;76.30;;;;;;2345269;57;21601;-46
2022/12/09 04:02:28;;;;;;;42.35;16.95;;;4.30;76.40;;;;;;2344398;57;21550;-53
2022/12/09 04:04:55;;;;;;;37.00;17.08;;;4.30;76.50;;;;;;2344573;57;21693;-48
2022/12/09 04:07:22;;;;;;;41.15;17.85;;;4.30;76.60;;;;;;2344560;57;21034;-45
2022/12/09 04:09:49;;;;;;;51.55;20.52;;;4.30;76.60;;;;;;2344387;57;21178;-47
2022/12/09 04:12:17;;;;;;;48.50;20.00;;;4.30;76.60;;;;;;2344631;57;21057;-49
2022/12/09 04:14:44;;;;;;;40.67;18.12;;;4.30;76.60;;;;;;2344716;57;21582;-46
2022/12/09 04:17:11;;;;;;;43.33;19.05;;;4.30;76.60;;;;;;2345171;57;21089;-51
2022/12/09 04:19:38;;;;;;;43.08;18.33;;;4.30;76.60;;;;;;2345098;57;21565;-56
2022/12/09 04:22:06;;;;;;;41.63;18.20;;;4.30;76.60;;;;;;2344462;57;21609;-49
2022/12/09 04:24:33;;;;;;;36.90;16.15;;;4.40;76.60;;;;;;2344483;57;21534;-50
2022/12/09 04:27:00;;;;;;;37.50;16.05;;;4.30;76.50;;;;;;2344285;57;21045;-50
2022/12/09 04:29:27;;;;;;;39.42;18.83;;;4.30;76.30;;;;;;2344306;57;21053;-46
2022/12/09 04:31:54;;;;;;;41.93;17.47;;;4.40;76.40;;;;;;2344293;57;21046;-46
2022/12/09 04:34:22;;;;;;;34.53;16.52;;;4.40;76.10;;;;;;2344229;57;21101;-47
2022/12/09 04:36:49;;;;;;;33.13;15.77;;;4.40;76.00;;;;;;2344349;57;21046;-51
2022/12/09 04:39:18;;;;;;;39.28;17.15;;;4.40;76.00;;;;;;2344346;57;21066;-48
2022/12/09 04:41:45;;;;;;;37.80;17.65;;;4.40;76.10;;;;;;2344339;57;21097;-47
2022/12/09 04:44:12;;;;;;;32.75;16.23;;;4.40;76.10;;;;;;2344361;57;21542;-49
2022/12/09 04:46:39;;;;;;;39.22;18.10;;;4.40;76.30;;;;;;2344733;57;21042;-46
2022/12/09 04:49:06;;;;;;;33.80;16.85;;;4.40;76.40;;;;;;2344460;57;21514;-48
2022/12/09 04:51:33;;;;;;;41.72;18.90;;;4.40;76.50;;;;;;2344420;57;21129;-52
2022/12/09 04:54:01;;;;;;;40.03;18.05;;;4.40;76.30;;;;;;2344430;57;21113;-50
2022/12/09 04:56:28;;;;;;;34.63;17.02;;;4.40;76.30;;;;;;2344191;57;21061;-52
2022/12/09 04:58:55;;;;;;;40.05;17.48;;;4.40;76.30;;;;;;2344480;57;21558;-49
2022/12/09 05:01:23;;;;;;;38.65;18.00;;;4.50;76.50;;;;;;2344648;57;21130;-50
2022/12/09 05:03:51;;;;;;;40.08;17.08;;;4.50;76.40;;;;;;2344573;57;21633;-49
2022/12/09 05:06:20;;;;;;;40.30;18.85;;;4.50;76.30;;;;;;2345047;57;21689;-47
2022/12/09 05:08:48;;;;;;;37.00;16.52;;;4.50;76.20;;;;;;2345040;57;21521;-49
2022/12/09 05:11:15;;;;;;;41.10;19.20;;;4.50;76.20;;;;;;2344925;57;21573;-48
2022/12/09 05:13:43;;;;;;;37.85;16.95;;;4.60;76.40;;;;;;2344529;57;21597;-48
2022/12/09 05:16:12;;;;;;;31.95;16.05;;;4.60;76.50;;;;;;2344322;57;21661;-51
2022/12/09 05:18:39;;;;;;;41.00;18.25;;;4.60;76.70;;;;;;2344324;57;21613;-50
2022/12/09 05:21:07;;;;;;;40.90;18.83;;;4.60;76.70;;;;;;2344305;57;21062;-52
2022/12/09 05:23:36;;;;;;;38.97;18.12;;;4.60;76.60;;;;;;2344624;57;21861;-50
2022/12/09 05:26:04;;;;;;;44.55;19.30;;;4.70;76.30;;;;;;2344163;57;21638;-48
2022/12/09 05:28:32;;;;;;;33.78;15.48;;;4.70;76.20;;;;;;2345627;57;21589;-50
2022/12/09 05:31:00;;;;;;;35.70;17.95;;;4.70;76.20;;;;;;2345426;57;21602;-48
2022/12/09 05:33:28;;;;;;;36.22;16.75;;;4.70;76.30;;;;;;2345774;57;21648;-50
2022/12/09 05:35:55;;;;;;;37.13;17.60;;;4.70;76.40;;;;;;2345390;57;21662;-48
2022/12/09 05:38:23;;;;;;;44.13;19.92;;;4.70;77.10;;;;;;2345546;57;21026;-48
2022/12/09 05:40:50;;;;;;;33.47;15.90;;;4.70;76.20;;;;;;2345604;57;21026;-47
2022/12/09 05:43:18;;;;;;;36.17;16.30;;;4.80;76.10;;;;;;2344356;57;21112;-49
2022/12/09 05:45:45;;;;;;;38.97;17.83;;;4.80;76.20;;;;;;2344242;57;21508;-47
2022/12/09 05:48:12;;;;;;;40.30;17.52;;;4.80;76.80;;;;;;2344401;57;21121;-49
2022/12/09 05:50:39;;;;;;;36.88;17.37;;;4.80;76.20;;;;;;2344126;57;21062;-50
2022/12/09 05:53:06;;;;;;;38.65;19.33;;;4.80;76.30;;;;;;2344590;57;21054;-49
2022/12/09 05:55:33;;;;;;;41.33;19.90;;;4.80;76.30;;;;;;2344502;57;21617;-50
2022/12/09 05:58:01;;;;;;;36.95;17.30;;;4.80;76.00;;;;;;2345045;57;21038;-46
2022/12/09 06:00:28;;;;;;;30.95;15.50;;;4.80;75.90;;;;;;2345089;57;21102;-45
2022/12/09 06:02:55;;;;;;;41.50;19.05;;;4.80;76.00;;;;;;2344665;57;21062;-49
2022/12/09 06:05:22;;;;;;;40.85;18.00;;;4.90;76.00;;;;;;2344583;57;21066;-47
2022/12/09 06:07:49;;;;;;;36.08;16.50;;;4.80;76.00;;;;;;2344295;57;21311;-49
2022/12/09 06:10:17;;;;;;;36.85;17.83;;;4.80;75.90;;;;;;2344640;57;21082;-47
2022/12/09 06:12:44;;;;;;;45.03;19.30;;;4.90;76.00;;;;;;2344379;57;21049;-47
2022/12/09 06:15:11;;;;;;;48.33;20.25;;;4.80;75.80;;;;;;2344239;57;21041;-48
2022/12/09 06:17:38;;;;;;;39.78;17.73;;;4.80;75.70;;;;;;2345532;57;21022;-53
2022/12/09 06:20:07;;;;;;;38.03;18.55;;;4.90;75.80;;;;;;2345592;57;21519;-47
2022/12/09 06:22:35;;;;;;;48.65;20.35;;;4.80;75.70;;;;;;2345478;57;21030;-48
2022/12/09 06:25:02;;;;;;;39.42;17.58;;;4.90;75.70;;;;;;2345389;57;21594;-51
2022/12/09 06:27:29;;;;;;;40.22;17.87;;;4.90;75.70;;;;;;2345744;57;21022;-51
2022/12/09 06:29:56;;;;;;;45.80;20.52;;;4.90;75.70;;;;;;2345032;57;21058;-48
2022/12/09 06:32:23;;;;;;;44.78;20.42;;;4.90;75.70;;;;;;2344297;57;21090;-48
2022/12/09 06:34:50;;;;;;;46.88;21.80;;;4.90;75.60;;;;;;2344416;57;21641;-47
2022/12/09 06:37:18;;;;;;;48.20;20.42;;;4.90;75.60;;;;;;2344360;57;21116;-49
2022/12/09 06:39:45;;;;;;;42.95;18.95;;;4.80;75.50;;;;;;2344616;57;21101;-45
2022/12/09 06:42:13;;;;;;;44.35;19.12;;;4.90;75.70;;;;;;2344457;57;21535;-45
2022/12/09 06:44:40;;;;;;;59.80;22.73;;;4.80;75.80;;;;;;2344350;57;21641;-53
2022/12/09 06:47:07;;;;;;;48.45;20.20;;;4.80;75.90;;;;;;2344789;57;21057;-53
2022/12/09 06:49:34;;;;;;;47.70;21.08;;;4.80;75.80;;;;;;2345032;57;21062;-47
2022/12/09 06:52:02;;;;;;;46.75;21.35;;;4.80;75.70;;;;;;2344455;57;21042;-47
2022/12/09 06:54:29;;;;;;;45.97;20.48;;;4.80;75.70;;;;;;2344134;57;21615;-48
2022/12/09 06:56:56;;;;;;;54.38;22.73;;;4.80;75.70;;;;;;2344298;57;21113;-53
2022/12/09 06:59:23;;;;;;;43.50;20.52;;;4.80;75.80;;;;;;2344362;57;21126;-49
2022/12/09 07:01:50;;;;;;;45.22;20.10;;;4.80;75.80;;;;;;2344416;57;21038;-46
2022/12/09 07:04:18;;;;;;;46.75;20.73;;;4.80;75.80;;;;;;2344482;57;21106;-46
2022/12/09 07:06:45;;;;;;;44.58;20.50;;;4.80;75.90;;;;;;2344262;57;21105;-52
2022/12/09 07:09:14;;;;;;;48.05;19.73;;;4.80;76.00;;;;;;2344533;57;21046;-50
2022/12/09 07:11:44;;;;;;;48.45;21.65;;;4.90;76.10;;;;;;2344129;57;21542;-51
2022/12/09 07:14:12;;;;;;;56.33;22.80;;;4.90;76.10;;;;;;2344286;57;21030;-48
2022/12/09 07:16:40;;;;;;;56.95;23.45;;;4.80;75.80;;;;;;2344362;57;21042;-45
2022/12/09 07:19:07;;;;;;;55.40;24.02;;;4.80;75.70;;;;;;2344414;57;21534;-50
2022/12/09 07:21:35;;;;;;;48.50;21.67;;;4.80;75.70;;;;;;2344122;57;21133;-48
2022/12/09 07:24:03;;;;;;;56.47;23.90;;;4.90;75.90;;;;;;2344171;57;21608;-48
2022/12/09 07:26:32;;;;;;;53.55;22.98;;;4.80;75.80;;;;;;2344363;57;21058;-46
2022/12/09 07:29:02;;;;;;;66.40;25.33;;;4.80;75.70;;;;;;2344399;57;21030;-51
2022/12/09 07:31:29;;;;;;;54.53;22.77;;;4.80;75.60;;;;;;2344292;57;21549;-48
2022/12/09 07:33:57;;;;;;;59.00;23.05;;;4.80;75.50;;;;;;2344563;57;21046;-45
2022/12/09 07:36:27;;;;;;;69.50;25.27;;;4.80;75.50;;;;;;2344383;57;21094;-49
2022/12/09 07:38:55;;;;;;;62.25;24.90;;;4.80;75.60;;;;;;2344957;57;21025;-45
2022/12/09 07:41:22;;;;;;;60.55;23.62;;;4.80;75.50;;;;;;2344323;57;21580;-45
2022/12/09 07:43:49;;;;;;;54.47;22.40;;;4.80;75.60;;;;;;2344306;57;21616;-48
2022/12/09 07:46:18;;;;;;;49.83;23.12;;;4.80;75.70;;;;;;2344131;57;21082;-48
2022/12/09 07:48:46;;;;;;;49.70;21.45;;;4.80;75.70;;;;;;2344392;57;21624;-52
2022/12/09 07:51:13;;;;;;;57.30;25.05;;;4.80;75.80;;;;;;2343994;57;21128;-50
2022/12/09 07:53:41;;;;;;;44.47;20.27;;;4.80;75.80;;;;;;2344363;57;21181;-45
2022/12/09 07:56:13;;;;;;;53.72;22.23;;;4.80;75.90;;;;;;2344396;57;21059;-49
2022/12/09 07:58:41;;;;;;;55.10;22.33;;;4.80;75.90;;;;;;2345620;57;21022;-48
2022/12/09 08:01:09;;;;;;;49.05;20.77;;;4.80;75.80;;;;;;2345577;57;21090;-48
2022/12/09 08:03:38;;;;;;;52.97;22.35;;;4.90;75.70;;;;;;2345361;57;21487;-51
2022/12/09 08:06:06;;;;;;;49.45;21.90;;;4.90;75.60;;;;;;2344091;57;21082;-46
2022/12/09 08:08:34;;;;;;;50.12;21.10;;;4.90;75.50;;;;;;2343936;57;21601;-50
2022/12/09 08:11:07;;;;;;;43.42;20.33;;;4.90;75.60;;;;;;2344268;57;21333;-46
2022/12/09 08:13:35;;;;;;;45.95;21.52;;;4.90;75.70;;;;;;2344462;57;21125;-48
2022/12/09 08:16:03;;;;;;;48.25;20.55;;;4.90;75.70;;;;;;2344409;57;21534;-54
2022/12/09 08:18:31;;;;;;;46.50;20.30;;;4.90;75.70;;;;;;2344503;57;21530;-46
2022/12/09 08:20:58;;;;;;;42.45;19.30;;;4.90;75.80;;;;;;2344715;57;21133;-50
2022/12/09 08:23:26;;;;;;;45.03;19.35;;;4.90;75.90;;;;;;2345108;57;21054;-52
2022/12/09 08:25:54;;;;;;;39.55;18.12;;;4.90;75.90;;;;;;2344711;57;21110;-48
2022/12/09 08:28:21;;;;;;;39.90;18.90;;;4.90;76.00;;;;;;2344346;57;21090;-48
2022/12/09 08:30:49;;;;;;;38.25;18.23;;;4.90;76.10;;;;;;2343694;57;21129;-56
2022/12/09 08:33:16;;;;;;;45.35;20.90;;;4.90;76.30;;;;;;2344420;57;21613;-51
2022/12/09 08:35:44;;;;;;;40.28;19.20;;;5.00;76.20;;;;;;2344304;57;21549;-49
2022/12/09 08:38:11;;;;;;;43.30;18.52;;;5.00;76.10;;;;;;2344241;57;21034;-46
2022/12/09 08:40:39;;;;;;;47.65;21.02;;;5.00;76.10;;;;;;2344332;57;21034;-50
2022/12/09 08:43:07;;;;;;;40.10;16.58;;;4.90;76.00;;;;;;2344395;57;21220;-50
2022/12/09 08:45:37;;;;;;;38.70;18.33;;;5.00;76.10;;;;;;2345510;57;21503;-47
2022/12/09 08:48:05;;;;;;;36.22;16.92;;;5.00;76.00;;;;;;2345641;57;21110;-50
2022/12/09 08:50:32;;;;;;;45.95;21.20;;;5.00;75.90;;;;;;2345871;57;21014;-53
2022/12/09 08:53:00;;;;;;;34.15;16.25;;;5.00;75.80;;;;;;2345694;57;21132;-49
2022/12/09 08:55:28;;;;;;;36.47;18.02;;;5.00;75.70;;;;;;2345531;57;21018;-49
2022/12/09 08:57:55;;;;;;;35.28;16.70;;;5.10;75.80;;;;;;2344848;57;21243;-57
2022/12/09 09:00:23;;;;;;;35.60;17.25;;;5.10;75.80;;;;;;2344396;57;21610;-47
2022/12/09 09:02:50;;;;;;;36.03;16.15;;;5.10;75.90;;;;;;2344445;57;21053;-51
2022/12/09 09:05:17;;;;;;;37.97;18.17;;;5.00;75.90;;;;;;2344495;57;21522;-45
2022/12/09 09:07:45;;;;;;;34.75;17.60;;;5.10;76.10;;;;;;2344247;57;21069;-52
2022/12/09 09:10:12;;;;;;;39.58;18.58;;;5.10;75.80;;;;;;2344491;57;21056;-48
2022/12/09 09:12:40;;;;;;;40.63;17.67;;;5.00;75.60;;;;;;2344742;57;21542;-50
2022/12/09 09:15:09;;;;;;;37.80;18.95;;;5.00;75.70;;;;;;2344903;57;21125;-53
2022/12/09 09:17:36;;;;;;;42.45;19.05;;;5.00;75.40;;;;;;2345027;57;21522;-49
2022/12/09 09:20:05;;;;;;;41.85;18.33;;;5.00;75.30;;;;;;2344432;57;21613;-47
2022/12/09 09:22:33;;;;;;;45.30;19.95;;;5.00;75.20;;;;;;2344732;57;21105;-47
2022/12/09 09:25:00;;;;;;;42.47;19.92;;;4.90;75.30;;;;;;2344093;57;21541;-48
2022/12/09 09:27:27;;;;;;;36.33;18.30;;;4.90;75.90;;;;;;2344539;57;21173;-48
2022/12/09 09:29:54;;;;;;;33.13;17.37;;;4.90;75.40;;;;;;2344100;57;21046;-48
2022/12/09 09:32:22;;;;;;;31.95;16.42;;;4.90;75.40;;;;;;2344280;57;22066;-48
2022/12/09 09:34:49;;;;;;;35.70;16.20;;;4.90;76.20;;;;;;2344611;57;22177;-46
2022/12/09 09:37:16;;;;;;;38.13;18.33;;;4.90;75.60;;;;;;2344382;57;21089;-49
2022/12/09 09:39:43;;;;;;;31.85;15.93;;;4.90;75.70;;;;;;2344515;57;21069;-52
2022/12/09 09:42:15;;;;;;;32.42;16.90;;;4.90;76.40;;;;;;2344422;57;21034;-49
2022/12/09 09:44:45;;;;;;;35.95;16.20;;;4.90;75.40;;;;;;2345669;57;21609;-50
2022/12/09 09:47:16;;;;;;;32.53;16.75;;;4.90;75.20;;;;;;2345181;57;21046;-46
2022/12/09 09:49:49;;;;;;;29.25;14.48;;;4.90;75.00;;;;;;2344717;57;21053;-51
2022/12/09 09:52:17;;;;;;;30.42;15.93;;;4.90;75.10;;;;;;2344355;57;21165;-52
2022/12/09 09:54:45;;;;;;;29.75;16.05;;;4.90;75.20;;;;;;2344379;57;21684;-47
2022/12/09 09:57:15;;;;;;;30.08;15.98;;;4.90;75.20;;;;;;2344432;57;21043;-54
2022/12/09 09:59:55;;;;;;;32.97;15.52;;;4.90;75.20;;;;;;2344581;57;21034;-51
2022/12/09 10:02:32;;;;;;;31.60;15.70;;;4.90;75.10;;;;;;2344632;57;21605;-47
2022/12/09 10:05:07;;;;;;;29.98;15.15;;;4.90;74.90;;;;;;2345027;57;21153;-52
2022/12/09 10:07:42;;;;;;;34.85;17.15;;;4.80;74.30;;;;;;2344947;57;21042;-50
2022/12/09 10:10:22;;;;;;;32.13;16.77;;;4.80;74.60;;;;;;2344677;57;21109;-56
2022/12/09 10:13:04;;;;;;;31.67;15.95;;;4.80;74.50;;;;;;2344441;57;21569;-47
2022/12/09 10:15:37;;;;;;;28.70;14.00;;;4.80;74.60;;;;;;2344310;57;21145;-50
2022/12/09 10:18:12;;;;;;;;;;;4.80;74.60;;;;;;2348067;57;21046;-49
2022/12/09 10:20:40;;;;;;;29.63;15.45;;;4.80;74.80;;;;;;2344035;57;20338;-49
2022/12/09 10:23:12;;;;;;;30.15;15.70;;;4.80;74.30;;;;;;2344681;57;21542;-49
2022/12/09 10:25:46;;;;;;;32.67;14.93;;;4.70;74.70;;;;;;2345873;57;21034;-51
2022/12/09 10:28:19;;;;;;;28.35;14.73;;;4.70;75.00;;;;;;2345740;57;21165;-53
2022/12/09 10:30:46;;;;;;;;;;;4.70;75.30;;;;;;2349236;57;21018;-51
2022/12/09 10:33:15;;;;;;;34.10;15.55;;;4.80;75.50;;;;;;2345763;57;20098;-50
2022/12/09 10:35:42;;;;;;;33.58;15.73;;;4.80;75.00;;;;;;2345766;57;21010;-52
2022/12/09 10:38:11;;;;;;;37.40;17.15;;;4.70;75.20;;;;;;2344655;57;21117;-51
2022/12/09 10:40:51;;;;;;;32.35;16.12;;;4.70;75.40;;;;;;2344519;57;21046;-50
2022/12/09 10:43:37;;;;;;;35.83;16.77;;;4.70;75.60;;;;;;2344469;57;21113;-48
2022/12/09 10:46:08;;;;;;;32.65;15.65;;;4.70;75.50;;;;;;2344170;57;21566;-50
2022/12/09 10:48:40;;;;;;;33.33;17.80;;;4.70;75.30;;;;;;2344564;57;21029;-46
2022/12/09 10:51:13;;;;;;;31.00;14.73;;;4.70;75.20;;;;;;2344424;57;21030;-50
2022/12/09 10:53:46;;;;;;;33.33;14.90;;;4.70;75.30;;;;;;2344984;57;21621;-54
2022/12/09 10:56:21;;;;;;;27.92;14.30;;;4.70;75.30;;;;;;2345151;57;21046;-47
2022/12/09 10:58:48;;;;;;;28.40;13.77;;;4.70;75.30;;;;;;2344509;57;21129;-46
2022/12/09 11:01:17;;;;;;;33.17;16.58;;;4.70;75.40;;;;;;2344147;57;21050;-53
2022/12/09 11:03:49;;;;;;;35.97;17.00;;;4.70;74.90;;;;;;2344555;57;21586;-50
2022/12/09 11:06:23;;;;;;;33.00;15.88;;;4.60;75.30;;;;;;2344866;57;21110;-48
2022/12/09 11:08:53;;;;;;;26.25;13.90;;;4.60;75.30;;;;;;2344620;57;21042;-51
2022/12/09 11:11:36;;;;;;;34.20;15.10;;;4.60;75.50;;;;;;2344182;57;21655;-53
2022/12/09 11:14:21;;;;;;;28.90;14.38;;;4.60;75.60;;;;;;2344577;57;21057;-47
2022/12/09 11:16:49;;;;;;;34.50;16.73;;;4.60;75.60;;;;;;2344213;57;21049;-50
2022/12/09 11:19:16;;;;;;;37.03;16.85;;;4.70;76.30;;;;;;2345784;57;21634;-48
2022/12/09 11:21:43;;;;;;;32.28;15.35;;;4.60;75.50;;;;;;2345601;57;21089;-49
2022/12/09 11:24:23;;;;;;;31.62;16.33;;;4.60;75.60;;;;;;2345560;57;21530;-50
2022/12/09 11:26:50;;;;;;;32.22;15.77;;;4.60;75.70;;;;;;2344742;57;21506;-51
2022/12/09 11:29:18;;;;;;;31.60;15.55;;;4.60;75.60;;;;;;2344502;57;21621;-46
2022/12/09 11:31:46;;;;;;;31.23;15.68;;;4.60;75.70;;;;;;2344202;57;21106;-57
2022/12/09 11:34:19;;;;;;;28.45;14.65;;;4.60;75.80;;;;;;2344323;57;22177;-49
2022/12/09 11:36:50;;;;;;;27.33;13.98;;;4.60;75.70;;;;;;2344411;57;21522;-47
2022/12/09 11:39:25;;;;;;;30.92;14.35;;;4.60;75.60;;;;;;2344443;57;21763;-50
2022/12/09 11:42:13;;;;;;;29.85;14.80;;;4.60;75.70;;;;;;2344796;57;21089;-51
2022/12/09 11:44:48;;;;;;;31.02;12.70;;;4.60;75.70;;;;;;2345087;57;21087;-50
2022/12/09 11:47:29;;;;;;;32.97;14.93;;;4.60;75.70;;;;;;2344414;57;21560;-51
2022/12/09 11:50:05;;;;;;;29.85;14.48;;;4.60;75.70;;;;;;2344535;57;21546;-48
2022/12/09 11:52:32;;;;;;;26.20;13.30;;;4.60;75.70;;;;;;2344270;57;21066;-49
2022/12/09 11:55:21;;;;;;;29.92;14.57;;;4.70;75.90;;;;;;2344388;57;21042;-51
2022/12/09 11:57:53;;;;;;;27.75;13.77;;;4.60;75.90;;;;;;2344395;57;21053;-48
2022/12/09 12:00:23;;;;;;;23.23;11.63;;;4.60;75.70;;;;;;2345819;57;21417;-48
2022/12/09 12:03:00;;;;;;;27.80;14.27;;;4.70;75.80;;;;;;2345367;57;21553;-52
2022/12/09 12:05:32;;;;;;;27.40;14.85;;;4.60;75.70;;;;;;2345242;57;21014;-52
2022/12/09 12:08:11;;;;;;;31.15;15.50;;;4.70;75.70;;;;;;2345799;57;21029;-54
2022/12/09 12:10:42;;;;;;;27.48;14.07;;;4.60;75.70;;;;;;2345339;57;21515;-51
2022/12/09 12:13:16;;;;;;;27.33;13.65;;;4.70;75.80;;;;;;2344663;57;21605;-52
2022/12/09 12:15:50;;;;;;;29.33;13.73;;;4.70;75.90;;;;;;2344314;57;21557;-48
2022/12/09 12:18:20;;;;;;;28.40;15.20;;;4.70;75.80;;;;;;2344239;57;21125;-49
2022/12/09 12:21:26;;;;;;;28.05;14.18;;;4.70;75.60;;;;;;2344265;57;21030;-50
2022/12/09 12:24:13;;;;;;;32.40;15.98;;;4.70;75.60;;;;;;2344237;57;21564;-49
2022/12/09 12:26:48;;;;;;;28.30;13.88;;;4.70;75.40;;;;;;2344868;57;21522;-57
2022/12/09 12:29:30;;;;;;;26.58;13.98;;;4.70;75.50;;;;;;2345030;57;21549;-48
2022/12/09 12:32:18;;;;;;;24.37;12.13;;;4.70;75.70;;;;;;2344636;57;21632;-48
2022/12/09 12:34:58;;;;;;;31.17;15.70;;;4.70;75.90;;;;;;2344596;57;21546;-52
2022/12/09 12:37:38;;;;;;;30.73;15.75;;;4.70;76.00;;;;;;2344447;57;21046;-52
2022/12/09 12:40:18;;;;;;;30.83;15.35;;;4.70;76.20;;;;;;2344459;57;21656;-53
2022/12/09 12:48:47;;;;;;;26.12;14.38;;;4.70;76.20;;;;;;2344687;57;20994;-46
2022/12/09 12:51:25;;;;;;;30.73;15.10;;;4.70;76.20;;;;;;2345421;57;21097;-47
2022/12/09 12:54:02;;;;;;;29.60;15.43;;;4.70;76.30;;;;;;2345737;57;21069;-50
2022/12/09 12:56:35;;;;;;;29.10;15.45;;;4.70;76.30;;;;;;2345684;57;21037;-53
2022/12/09 12:59:05;;;;;;;;;;;4.70;76.40;;;;;;2349285;57;21180;-48